createdAt,value
2023-02-14T00:01:53.646Z,5.60
2023-02-14T00:04:22.359Z,5.54
2023-02-14T00:06:50.830Z,5.56
2023-02-14T00:09:20.982Z,5.54
2023-02-14T00:11:49.500Z,5.54
2023-02-14T00:14:35.863Z,5.49
2023-02-14T00:17:04.600Z,5.52
2023-02-14T00:19:34.719Z,5.53
2023-02-14T00:22:03.673Z,5.53
2023-02-14T00:24:32.206Z,5.54
2023-02-14T00:27:00.689Z,5.53
2023-02-14T00:29:34.051Z,5.55
2023-02-14T00:32:02.596Z,5.55
2023-02-14T00:34:30.850Z,5.54
2023-02-14T00:37:10.134Z,5.51
2023-02-14T00:39:38.186Z,5.47
2023-02-14T00:42:06.302Z,5.45
2023-02-14T00:44:34.745Z,5.41
2023-02-14T00:47:03.083Z,5.40
2023-02-14T00:49:31.487Z,5.40
2023-02-14T00:51:59.514Z,5.37
2023-02-14T00:54:28.205Z,5.37
2023-02-14T00:56:56.644Z,5.35
2023-02-14T00:59:25.250Z,5.34
2023-02-14T01:01:53.664Z,5.35
2023-02-14T01:04:22.265Z,5.26
2023-02-14T01:06:50.642Z,5.28
2023-02-14T01:09:19.016Z,5.30
2023-02-14T01:11:48.737Z,5.30
2023-02-14T01:14:17.297Z,5.30
2023-02-14T01:19:31.834Z,5.27
2023-02-14T01:22:00.207Z,5.27
2023-02-14T01:24:28.671Z,5.26
2023-02-14T01:26:57.077Z,5.26
2023-02-14T01:29:25.541Z,5.26
2023-02-14T02:08:42.559Z,5.20
2023-02-14T02:11:11.460Z,5.21
2023-02-14T02:13:39.930Z,5.23
2023-02-14T02:16:41.421Z,5.28
2023-02-14T02:19:32.845Z,5.26
2023-02-14T02:22:45.686Z,5.26
2023-02-14T02:25:50.576Z,5.23
2023-02-14T02:28:58.497Z,5.28
2023-02-14T02:32:19.330Z,5.26
2023-02-14T02:35:08.266Z,5.30
2023-02-14T02:37:48.714Z,5.31
2023-02-14T02:40:40.839Z,5.33
2023-02-14T02:43:44.437Z,5.35
2023-02-14T02:46:49.139Z,5.35
2023-02-14T02:50:00.407Z,5.36
2023-02-14T02:52:48.063Z,5.36
2023-02-14T02:56:18.252Z,5.34
2023-02-14T02:59:04.878Z,5.33
2023-02-14T03:01:39.372Z,5.30
2023-02-14T03:04:30.363Z,5.31
2023-02-14T03:07:00.378Z,5.31
2023-02-14T03:09:28.733Z,5.31
2023-02-14T03:12:14.937Z,5.33
2023-02-14T03:14:58.293Z,5.33
2023-02-14T03:18:13.788Z,5.33
2023-02-14T03:20:41.172Z,5.32
2023-02-14T03:23:09.623Z,5.32
2023-02-14T03:25:48.929Z,5.33
2023-02-14T03:28:38.667Z,5.30
2023-02-14T03:31:32.449Z,5.26
2023-02-14T03:34:02.238Z,5.26
2023-02-14T03:36:43.738Z,5.25
2023-02-14T03:39:17.513Z,5.28
2023-02-14T03:41:53.061Z,5.30
2023-02-14T03:44:25.850Z,5.27
2023-02-14T03:47:02.697Z,5.24
2023-02-14T03:49:36.918Z,5.21
2023-02-14T03:52:06.956Z,5.20
2023-02-14T03:54:36.892Z,5.21
2023-02-14T03:57:30.039Z,5.21
2023-02-14T03:59:58.846Z,5.20
2023-02-14T04:02:37.279Z,5.21
2023-02-14T04:05:14.655Z,5.19
2023-02-14T04:07:57.702Z,5.20
2023-02-14T04:10:27.483Z,5.18
2023-02-14T04:12:55.962Z,5.17
2023-02-14T04:15:24.345Z,5.16
2023-02-14T04:18:10.337Z,5.16
2023-02-14T04:20:38.748Z,5.15
2023-02-14T04:23:07.170Z,5.13
2023-02-14T04:25:35.723Z,5.14
2023-02-14T04:28:04.155Z,5.14
2023-02-14T04:30:32.217Z,5.08
2023-02-14T04:33:00.673Z,5.09
2023-02-14T04:35:29.088Z,5.05
2023-02-14T04:37:57.569Z,5.05
2023-02-14T04:40:25.943Z,5.05
2023-02-14T04:42:54.379Z,5.06
2023-02-14T04:45:22.786Z,5.05
2023-02-14T04:47:51.197Z,5.01
2023-02-14T04:50:19.717Z,5.00
2023-02-14T04:52:48.102Z,5.01
2023-02-14T04:55:16.531Z,5.02
2023-02-14T04:57:44.978Z,5.01
2023-02-14T05:00:13.984Z,5.03
2023-02-14T05:02:42.377Z,5.03
2023-02-14T05:05:10.852Z,5.04
2023-02-14T05:07:39.292Z,5.02
2023-02-14T05:10:08.181Z,5.00
2023-02-14T05:12:36.326Z,4.98
2023-02-14T05:15:04.920Z,4.97
2023-02-14T05:17:33.816Z,4.95
2023-02-14T05:20:02.237Z,4.94
2023-02-14T05:22:30.621Z,4.91
2023-02-14T05:24:59.163Z,4.88
2023-02-14T05:27:27.593Z,4.88
2023-02-14T05:29:56.138Z,4.86
2023-02-14T05:32:24.570Z,4.86
2023-02-14T05:34:52.977Z,4.83
2023-02-14T05:37:21.418Z,4.83
2023-02-14T05:39:49.819Z,4.81
2023-02-14T05:42:18.199Z,4.77
2023-02-14T05:44:46.624Z,4.79
2023-02-14T05:47:15.127Z,4.83
2023-02-14T05:49:43.573Z,4.82
2023-02-14T05:52:11.965Z,4.81
2023-02-14T05:54:40.348Z,4.81
2023-02-14T05:57:08.761Z,4.82
2023-02-14T05:59:37.205Z,4.82
2023-02-14T06:02:05.689Z,4.84
2023-02-14T06:04:34.227Z,4.85
2023-02-14T06:07:02.870Z,4.87
2023-02-14T06:09:31.300Z,4.85
2023-02-14T06:11:59.963Z,4.83
2023-02-14T06:14:28.364Z,4.84
2023-02-14T06:16:56.808Z,4.83
2023-02-14T06:19:25.309Z,4.83
2023-02-14T06:21:53.785Z,4.77
2023-02-14T06:24:22.260Z,4.79
2023-02-14T06:26:50.624Z,4.84
2023-02-14T06:29:19.565Z,4.84
2023-02-14T06:31:48.147Z,4.89
2023-02-14T06:34:16.654Z,4.91
2023-02-14T06:36:45.096Z,4.91
2023-02-14T06:39:13.479Z,4.92
2023-02-14T06:41:42.059Z,4.96
2023-02-14T06:44:10.527Z,4.99
2023-02-14T06:46:39.022Z,4.99
2023-02-14T06:49:07.444Z,5.00
2023-02-14T06:51:35.796Z,5.02
2023-02-14T06:54:04.241Z,5.03
2023-02-14T06:56:32.684Z,5.06
2023-02-14T06:59:01.095Z,5.08
2023-02-14T07:01:29.837Z,5.08
2023-02-14T07:03:58.363Z,5.04
2023-02-14T07:06:26.963Z,5.06
2023-02-14T07:08:55.351Z,5.08
2023-02-14T07:11:23.818Z,5.12
2023-02-14T07:13:51.904Z,5.14
2023-02-14T07:16:20.371Z,5.15
2023-02-14T07:18:49.065Z,5.20
2023-02-14T07:21:17.513Z,5.23
2023-02-14T07:23:47.824Z,5.26
2023-02-14T07:26:18.365Z,5.26
2023-02-14T07:28:50.251Z,5.25
2023-02-14T07:31:19.904Z,5.26
2023-02-14T07:33:48.409Z,5.28
2023-02-14T07:36:18.777Z,5.27
2023-02-14T07:38:47.174Z,5.30
2023-02-14T07:41:15.744Z,5.32
2023-02-14T07:43:44.207Z,5.35
2023-02-14T07:46:12.747Z,5.41
2023-02-14T07:48:41.172Z,5.47
2023-02-14T07:51:09.706Z,5.49
2023-02-14T07:53:38.134Z,5.53
2023-02-14T07:56:06.762Z,5.57
2023-02-14T07:58:35.290Z,5.60
2023-02-14T08:01:03.717Z,5.60
2023-02-14T08:03:31.695Z,5.65
2023-02-14T08:06:00.128Z,5.70
2023-02-14T08:08:31.997Z,5.73
2023-02-14T08:11:00.980Z,5.78
2023-02-14T08:13:28.572Z,5.84
2023-02-14T08:16:09.620Z,5.84
2023-02-14T08:18:43.248Z,5.89
2023-02-14T08:21:12.541Z,5.92
2023-02-14T08:23:41.460Z,5.99
2023-02-14T08:26:09.882Z,6.02
2023-02-14T08:28:38.337Z,6.09
2023-02-14T08:31:06.779Z,6.12
2023-02-14T08:33:35.325Z,6.15
2023-02-14T08:36:03.582Z,6.18
2023-02-14T08:38:31.860Z,6.24
2023-02-14T08:41:06.696Z,6.33
2023-02-14T08:43:36.631Z,6.40
2023-02-14T08:46:05.253Z,6.44
2023-02-14T08:48:33.313Z,6.46
2023-02-14T08:51:05.741Z,6.47
2023-02-14T08:53:33.964Z,6.55
2023-02-14T08:56:15.666Z,6.59
2023-02-14T08:58:44.064Z,6.65
2023-02-14T09:01:18.164Z,6.68
2023-02-14T09:03:47.136Z,6.77
2023-02-14T09:06:18.111Z,6.86
2023-02-14T09:08:47.582Z,6.91
2023-02-14T09:11:22.125Z,6.96
2023-02-14T09:13:57.654Z,6.99
2023-02-14T09:16:26.749Z,6.99
2023-02-14T09:18:56.723Z,7.06
2023-02-14T09:21:30.214Z,7.11
2023-02-14T09:23:58.994Z,7.16
2023-02-14T09:26:28.832Z,7.24
2023-02-14T09:28:58.171Z,7.28
2023-02-14T09:31:26.960Z,7.35
2023-02-14T09:33:56.517Z,7.40
2023-02-14T09:36:28.257Z,7.49
2023-02-14T09:38:56.678Z,7.57
2023-02-14T09:41:30.814Z,7.63
2023-02-14T09:44:27.687Z,7.67
2023-02-14T09:47:02.343Z,7.71
2023-02-14T09:49:36.110Z,7.69
2023-02-14T09:52:08.153Z,7.77
2023-02-14T09:54:37.309Z,7.86
2023-02-14T09:57:20.047Z,7.93
2023-02-14T10:00:05.295Z,7.87
2023-02-14T10:02:51.909Z,7.99
2023-02-14T10:05:26.599Z,7.99
2023-02-14T10:07:57.552Z,8.00
2023-02-14T10:10:46.072Z,7.98
2023-02-14T10:13:39.121Z,7.99
2023-02-14T10:16:27.204Z,8.03
2023-02-14T10:19:04.519Z,8.07
2023-02-14T10:21:43.128Z,8.11
2023-02-14T10:24:22.790Z,8.18
2023-02-14T10:26:54.730Z,8.19
2023-02-14T10:29:22.900Z,8.16
2023-02-14T10:32:05.967Z,8.10
2023-02-14T10:34:39.807Z,8.02
2023-02-14T10:37:29.018Z,7.81
2023-02-14T10:40:26.793Z,7.70
2023-02-14T10:43:48.520Z,7.67
2023-02-14T10:46:35.512Z,7.64
2023-02-14T10:49:34.592Z,7.58
2023-02-14T10:52:42.175Z,7.56
2023-02-14T10:55:32.809Z,7.53
2023-02-14T10:58:05.259Z,7.56
2023-02-14T11:01:15.051Z,7.59
2023-02-14T11:04:04.053Z,7.57
2023-02-14T11:06:32.751Z,7.68
2023-02-14T11:09:01.078Z,7.70
2023-02-14T11:11:44.107Z,7.74
2023-02-14T11:14:32.244Z,7.67
2023-02-14T11:17:02.322Z,7.71
2023-02-14T11:19:37.495Z,7.62
2023-02-14T11:22:06.204Z,7.62
2023-02-14T11:24:41.669Z,7.71
2023-02-14T11:27:21.103Z,7.75
2023-02-14T11:29:53.086Z,7.84
2023-02-14T11:32:26.519Z,7.83
2023-02-14T11:35:09.200Z,7.87
2023-02-14T11:37:48.252Z,7.87
2023-02-14T11:40:38.815Z,7.82
2023-02-14T11:43:14.611Z,7.83
2023-02-14T11:45:45.904Z,7.87
2023-02-14T11:48:36.624Z,7.93
2023-02-14T11:51:16.404Z,7.90
2023-02-14T11:53:55.946Z,7.90
2023-02-14T11:56:25.632Z,7.94
2023-02-14T11:58:54.084Z,7.95
2023-02-14T12:01:42.610Z,8.03
2023-02-14T12:04:38.244Z,8.07
2023-02-14T12:07:18.148Z,8.07
2023-02-14T12:09:49.337Z,8.08
2023-02-14T12:12:26.431Z,8.09
2023-02-14T12:15:14.529Z,8.11
2023-02-14T12:17:46.783Z,8.15
2023-02-14T12:20:32.543Z,8.18
2023-02-14T12:23:16.887Z,8.18
2023-02-14T12:25:57.924Z,8.20
2023-02-14T12:28:45.417Z,8.21
2023-02-14T12:31:15.018Z,8.22
2023-02-14T12:33:45.704Z,8.22
2023-02-14T12:36:26.840Z,8.32
2023-02-14T12:39:41.443Z,8.25
2023-02-14T12:42:14.852Z,8.26
2023-02-14T12:45:06.088Z,8.28
2023-02-14T12:48:06.960Z,8.28
2023-02-14T12:51:01.405Z,8.37
2023-02-14T12:53:59.590Z,8.39
2023-02-14T12:56:43.134Z,8.45
2023-02-14T12:59:24.951Z,8.50
2023-02-14T13:02:11.553Z,8.51
2023-02-14T13:05:03.061Z,8.51
2023-02-14T13:08:08.159Z,8.55
2023-02-14T13:11:09.007Z,8.60
2023-02-14T13:14:10.472Z,8.63
2023-02-14T13:17:10.320Z,8.69
2023-02-14T13:20:49.836Z,8.66
2023-02-14T13:23:21.417Z,8.62
2023-02-14T13:25:59.380Z,8.66
2023-02-14T13:28:30.436Z,8.71
2023-02-14T13:31:01.807Z,8.74
2023-02-14T13:33:43.479Z,8.69
2023-02-14T13:36:14.699Z,8.75
2023-02-14T13:39:02.576Z,8.72
2023-02-14T13:41:31.351Z,8.76
2023-02-14T13:44:02.612Z,8.78
2023-02-14T13:46:33.792Z,8.75
2023-02-14T13:49:06.463Z,8.78
2023-02-14T13:51:49.760Z,8.86
2023-02-14T13:54:39.157Z,8.92
2023-02-14T13:57:37.813Z,8.87
2023-02-14T14:00:20.944Z,8.84
2023-02-14T14:02:58.050Z,8.83
2023-02-14T14:05:32.575Z,8.84
2023-02-14T14:08:21.506Z,8.88
2023-02-14T14:11:02.378Z,8.82
2023-02-14T14:13:42.574Z,8.84
2023-02-14T14:16:26.649Z,8.87
2023-02-14T14:19:22.960Z,8.88
2023-02-14T14:22:15.356Z,8.77
2023-02-14T14:24:58.131Z,8.79
2023-02-14T14:28:01.695Z,8.88
2023-02-14T14:30:33.525Z,8.87
2023-02-14T14:33:37.698Z,8.80
2023-02-14T14:36:11.428Z,8.82
2023-02-14T14:38:52.371Z,8.76
2023-02-14T14:41:21.797Z,8.70
2023-02-14T14:43:50.877Z,8.68
2023-02-14T14:46:19.435Z,8.70
2023-02-14T14:48:52.298Z,8.68
2023-02-14T14:51:33.715Z,8.63
2023-02-14T14:54:16.456Z,8.74
2023-02-14T14:56:59.266Z,8.73
2023-02-14T14:59:30.190Z,8.68
2023-02-14T15:01:58.409Z,8.68
2023-02-14T15:04:29.682Z,8.59
2023-02-14T15:07:18.942Z,8.57
2023-02-14T15:09:47.780Z,8.50
2023-02-14T15:12:39.568Z,8.56
2023-02-14T15:15:10.128Z,8.56
2023-02-14T15:17:39.085Z,8.52
2023-02-14T15:20:18.406Z,8.49
2023-02-14T15:22:50.361Z,8.48
2023-02-14T15:25:33.159Z,8.51
2023-02-14T15:28:02.128Z,8.49
2023-02-14T15:30:37.256Z,8.48
2023-02-14T15:33:07.901Z,8.46
2023-02-14T15:35:42.394Z,8.43
2023-02-14T15:38:13.162Z,8.42
2023-02-14T15:40:42.065Z,8.36
2023-02-14T15:43:19.201Z,8.30
2023-02-14T15:45:51.447Z,8.35
2023-02-14T15:48:34.940Z,8.32
2023-02-14T15:51:06.370Z,8.23
2023-02-14T15:53:55.972Z,8.15
2023-02-14T15:56:38.789Z,8.14
2023-02-14T15:59:24.106Z,8.16
2023-02-14T16:02:06.557Z,8.04
2023-02-14T16:04:36.704Z,7.99
2023-02-14T16:07:28.119Z,7.98
2023-02-14T16:10:59.535Z,7.88
2023-02-14T16:13:48.098Z,7.84
2023-02-14T16:16:17.593Z,7.74
2023-02-14T16:18:56.641Z,7.68
2023-02-14T16:21:30.460Z,7.63
2023-02-14T16:24:07.756Z,7.56
2023-02-14T16:26:39.775Z,7.48
2023-02-14T16:29:14.842Z,7.44
2023-02-14T16:34:42.052Z,7.37
2023-02-14T16:37:23.424Z,7.24
2023-02-14T16:39:54.490Z,7.19
2023-02-14T16:42:23.138Z,7.12
2023-02-14T16:44:52.645Z,7.06
2023-02-14T16:47:22.802Z,7.05
2023-02-14T16:49:53.215Z,7.06
2023-02-14T16:52:24.965Z,7.02
2023-02-14T16:54:54.419Z,6.95
2023-02-14T16:57:39.662Z,6.91
2023-02-14T17:00:09.555Z,6.85
2023-02-14T17:02:38.336Z,6.77
2023-02-14T17:05:07.227Z,6.76
2023-02-14T17:07:35.959Z,6.78
2023-02-14T17:10:11.851Z,6.77
2023-02-14T17:12:43.390Z,6.67
2023-02-14T17:15:18.775Z,6.62
2023-02-14T17:17:48.895Z,6.49
2023-02-14T17:20:19.968Z,6.47
2023-02-14T17:22:48.724Z,6.42
2023-02-14T17:25:17.383Z,6.38
2023-02-14T17:27:46.362Z,6.38
2023-02-14T17:30:15.863Z,6.36
2023-02-14T17:32:44.941Z,6.39
2023-02-14T17:35:14.542Z,6.31
2023-02-14T17:37:43.095Z,6.24
2023-02-14T17:40:12.706Z,6.21
2023-02-14T17:42:41.235Z,6.18
2023-02-14T17:45:11.994Z,6.17
2023-02-14T17:47:43.389Z,6.14
2023-02-14T17:50:13.118Z,6.05
2023-02-14T17:52:41.420Z,6.03
2023-02-14T17:55:10.413Z,6.01
2023-02-14T17:57:41.040Z,5.97
2023-02-14T18:00:11.855Z,5.95
2023-02-14T18:02:40.283Z,5.88
2023-02-14T18:05:09.302Z,5.80
2023-02-14T18:07:38.206Z,5.80
2023-02-14T18:10:07.465Z,5.73
2023-02-14T18:12:35.940Z,5.72
2023-02-14T18:15:05.578Z,5.71
2023-02-14T18:17:34.003Z,5.61
2023-02-14T18:20:03.320Z,5.62
2023-02-14T18:22:32.417Z,5.57
2023-02-14T18:25:00.621Z,5.53
2023-02-14T18:27:28.748Z,5.50
2023-02-14T18:29:56.984Z,5.45
2023-02-14T18:32:25.505Z,5.47
2023-02-14T18:34:55.721Z,5.46
2023-02-14T18:37:24.238Z,5.40
2023-02-14T18:39:52.713Z,5.39
2023-02-14T18:42:21.273Z,5.40
2023-02-14T18:44:52.698Z,5.38
2023-02-14T18:47:21.335Z,5.32
2023-02-14T18:49:49.750Z,5.18
2023-02-14T18:52:18.176Z,5.22
2023-02-14T18:54:46.632Z,5.16
2023-02-14T18:57:15.117Z,5.13
2023-02-14T18:59:43.613Z,5.07
2023-02-14T19:02:12.112Z,5.10
2023-02-14T19:04:40.741Z,5.05
2023-02-14T19:07:09.375Z,5.06
2023-02-14T19:09:40.215Z,5.06
2023-02-14T19:12:09.144Z,5.02
2023-02-14T19:14:38.393Z,4.97
2023-02-14T19:17:07.220Z,4.98
2023-02-14T19:19:36.018Z,4.98
2023-02-14T19:22:04.480Z,4.95
2023-02-14T19:24:32.905Z,4.93
2023-02-14T19:27:01.423Z,4.90
2023-02-14T19:29:30.033Z,4.87
2023-02-14T19:31:59.394Z,4.87
2023-02-14T19:34:31.226Z,4.81
2023-02-14T19:37:02.421Z,4.75
2023-02-14T19:39:32.187Z,4.72
2023-02-14T19:42:01.249Z,4.70
2023-02-14T19:44:31.151Z,4.65
2023-02-14T19:47:04.239Z,4.60
2023-02-14T19:49:36.318Z,4.54
2023-02-14T19:52:09.467Z,4.54
2023-02-14T19:54:42.794Z,4.48
2023-02-14T19:57:15.084Z,4.46
2023-02-14T19:59:43.779Z,4.46
2023-02-14T20:02:17.375Z,4.49
2023-02-14T20:04:45.888Z,4.50
2023-02-14T20:07:14.327Z,4.49
2023-02-14T20:09:42.987Z,4.46
2023-02-14T20:12:11.538Z,4.46
2023-02-14T20:14:50.892Z,4.46
2023-02-14T20:17:20.519Z,4.48
2023-02-14T20:19:49.327Z,4.53
2023-02-14T20:22:17.855Z,4.49
2023-02-14T20:24:46.373Z,4.46
2023-02-14T20:27:14.840Z,4.38
2023-02-14T20:29:45.000Z,4.39
2023-02-14T20:32:16.900Z,4.25
2023-02-14T20:34:45.770Z,4.27
2023-02-14T20:37:14.637Z,4.23
2023-02-14T20:39:43.103Z,4.19
2023-02-14T20:42:11.772Z,4.21
2023-02-14T20:44:41.515Z,4.16
2023-02-14T20:47:11.046Z,4.17
2023-02-14T20:49:40.000Z,4.12
2023-02-14T20:52:08.478Z,4.06
2023-02-14T20:54:40.380Z,4.05
2023-02-14T20:57:08.992Z,4.00
2023-02-14T20:59:37.731Z,3.99
2023-02-14T21:02:07.558Z,3.99
2023-02-14T21:04:36.099Z,4.02
2023-02-14T21:07:08.849Z,3.93
2023-02-14T21:09:38.840Z,3.90
2023-02-14T21:12:10.152Z,3.87
2023-02-14T21:14:38.675Z,3.90
2023-02-14T21:17:07.141Z,3.89
2023-02-14T21:19:35.660Z,3.85
2023-02-14T21:22:04.277Z,3.81
2023-02-14T21:24:32.925Z,3.81
2023-02-14T21:27:01.756Z,3.83
2023-02-14T21:29:30.321Z,3.78
2023-02-14T21:32:00.064Z,3.78
2023-02-14T21:34:30.189Z,3.66
2023-02-14T21:36:58.933Z,3.65
2023-02-14T21:39:28.186Z,3.63
2023-02-14T21:41:56.814Z,3.65
2023-02-14T21:44:39.196Z,3.68
2023-02-14T21:47:07.738Z,3.63
2023-02-14T21:49:53.715Z,3.61
2023-02-14T21:52:22.600Z,3.61
2023-02-14T21:54:51.164Z,3.58
2023-02-14T21:57:19.731Z,3.51
2023-02-14T21:59:48.284Z,3.49
2023-02-14T22:02:16.857Z,3.42
2023-02-14T22:04:45.758Z,3.56
2023-02-14T22:07:14.439Z,3.45
2023-02-14T22:09:42.931Z,3.44
2023-02-14T22:12:11.409Z,3.39
2023-02-14T22:14:39.895Z,3.41
2023-02-14T22:17:09.089Z,3.36
2023-02-14T22:19:37.578Z,3.37
2023-02-14T22:22:06.099Z,3.38
2023-02-14T22:24:34.556Z,3.32
2023-02-14T22:27:02.935Z,3.31
2023-02-14T22:29:31.404Z,3.24
2023-02-14T22:31:59.940Z,3.27
2023-02-14T22:34:28.425Z,3.32
2023-02-14T22:36:56.893Z,3.33
2023-02-14T22:39:25.412Z,3.34
2023-02-14T22:41:53.929Z,3.35
2023-02-14T22:44:22.534Z,3.34
2023-02-14T22:46:51.130Z,3.29
2023-02-14T22:49:19.670Z,3.22
2023-02-14T22:51:48.305Z,3.19
2023-02-14T22:54:17.715Z,3.11
2023-02-14T22:56:49.147Z,3.09
2023-02-14T22:59:24.092Z,3.07
2023-02-14T23:01:54.189Z,3.09
2023-02-14T23:04:25.036Z,3.12
2023-02-14T23:06:54.366Z,3.13
2023-02-14T23:09:24.801Z,3.14
2023-02-14T23:11:53.389Z,3.15
2023-02-14T23:14:39.822Z,3.18
2023-02-14T23:17:26.204Z,3.20
2023-02-14T23:20:12.169Z,3.23
2023-02-14T23:22:42.226Z,3.23
2023-02-14T23:25:13.077Z,3.21
2023-02-14T23:27:45.032Z,3.21
2023-02-14T23:30:18.264Z,3.18
2023-02-14T23:32:46.975Z,3.17
2023-02-14T23:35:15.728Z,3.15
2023-02-14T23:37:44.197Z,3.16
2023-02-14T23:40:13.045Z,3.12
2023-02-14T23:42:41.673Z,3.11
2023-02-14T23:45:26.864Z,3.09
2023-02-14T23:47:55.502Z,3.10
2023-02-14T23:50:23.945Z,3.07
2023-02-14T23:52:52.480Z,3.08
2023-02-14T23:55:20.914Z,3.09
2023-02-14T23:57:49.405Z,3.09
